createdAt,value
2022-12-01T00:01:24.330Z,60.84
2022-12-01T00:03:51.383Z,60.49
2022-12-01T00:06:20.541Z,60.49
2022-12-01T00:09:12.992Z,60.54
2022-12-01T00:11:42.288Z,60.59
2022-12-01T00:14:09.333Z,59.90
2022-12-01T00:16:36.518Z,60.40
2022-12-01T00:19:03.655Z,60.40
2022-12-01T00:21:30.760Z,60.24
2022-12-01T00:23:58.255Z,59.73
2022-12-01T00:26:27.286Z,60.49
2022-12-01T00:28:56.945Z,59.55
2022-12-01T00:31:25.037Z,60.80
2022-12-01T00:33:52.422Z,59.90
2022-12-01T00:36:20.062Z,59.58
2022-12-01T00:38:47.093Z,60.22
2022-12-01T00:41:14.282Z,59.92
2022-12-01T00:43:41.324Z,59.41
2022-12-01T00:46:08.877Z,59.67
2022-12-01T00:48:36.018Z,59.57
2022-12-01T00:51:03.348Z,59.52
2022-12-01T00:53:30.847Z,60.33
2022-12-01T00:55:57.886Z,59.33
2022-12-01T00:58:25.628Z,59.71
2022-12-01T01:01:01.233Z,59.06
2022-12-01T01:03:29.687Z,59.44
2022-12-01T01:05:57.028Z,60.19
2022-12-01T01:08:24.029Z,59.86
2022-12-01T01:10:51.081Z,59.22
2022-12-01T01:13:18.185Z,59.15
2022-12-01T01:15:45.213Z,59.46
2022-12-01T01:18:12.684Z,60.11
2022-12-01T01:20:39.929Z,60.12
2022-12-01T01:23:07.224Z,59.68
2022-12-01T01:25:34.460Z,58.80
2022-12-01T01:28:01.509Z,59.33
2022-12-01T01:30:28.865Z,59.15
2022-12-01T01:33:14.343Z,59.52
2022-12-01T01:35:41.330Z,58.92
2022-12-01T01:38:08.325Z,58.81
2022-12-01T01:40:42.128Z,58.98
2022-12-01T01:43:39.018Z,58.77
2022-12-01T01:46:07.182Z,58.51
2022-12-01T01:48:37.736Z,57.96
2022-12-01T01:51:06.036Z,59.17
2022-12-01T01:53:33.971Z,59.27
2022-12-01T01:56:03.295Z,58.55
2022-12-01T01:58:32.492Z,57.92
2022-12-01T02:00:59.564Z,57.93
2022-12-01T02:03:28.259Z,58.00
2022-12-01T02:05:58.329Z,57.98
2022-12-01T02:08:27.603Z,58.43
2022-12-01T02:11:20.788Z,58.42
2022-12-01T02:14:05.833Z,57.74
2022-12-01T02:16:51.583Z,58.13
2022-12-01T02:19:33.711Z,58.43
2022-12-01T02:22:09.725Z,58.85
2022-12-01T02:25:27.396Z,58.21
2022-12-01T02:28:24.956Z,57.40
2022-12-01T02:30:58.745Z,58.14
2022-12-01T02:33:43.863Z,59.51
2022-12-01T02:36:11.032Z,60.24
2022-12-01T02:38:51.756Z,60.41
2022-12-01T02:41:37.079Z,60.31
2022-12-01T02:44:46.008Z,58.84
2022-12-01T02:47:17.162Z,60.00
2022-12-01T02:49:49.799Z,60.44
2022-12-01T02:52:18.948Z,61.02
2022-12-01T02:54:48.466Z,59.70
2022-12-01T02:57:17.350Z,59.11
2022-12-01T02:59:49.825Z,59.86
2022-12-01T03:02:24.750Z,59.88
2022-12-01T03:05:07.088Z,60.00
2022-12-01T03:07:45.881Z,58.83
2022-12-01T03:10:48.326Z,58.48
2022-12-01T03:13:27.328Z,58.96
2022-12-01T03:16:29.889Z,58.93
2022-12-01T03:19:05.026Z,58.91
2022-12-01T03:22:01.695Z,58.71
2022-12-01T03:24:33.060Z,57.62
2022-12-01T03:27:03.221Z,58.58
2022-12-01T03:29:43.990Z,57.67
2022-12-01T03:32:33.876Z,57.52
2022-12-01T03:35:19.739Z,58.51
2022-12-01T03:37:49.599Z,58.19
2022-12-01T03:40:21.714Z,58.12
2022-12-01T03:43:01.526Z,58.51
2022-12-01T03:45:41.071Z,59.04
2022-12-01T03:48:08.567Z,58.59
2022-12-01T03:50:46.204Z,58.22
2022-12-01T03:53:24.835Z,58.21
2022-12-01T03:55:57.378Z,57.95
2022-12-01T03:58:34.144Z,58.03
2022-12-01T04:01:05.389Z,58.47
2022-12-01T04:03:33.432Z,57.89
2022-12-01T04:06:00.789Z,58.25
2022-12-01T04:08:28.203Z,57.81
2022-12-01T04:10:55.216Z,58.74
2022-12-01T04:13:25.818Z,57.86
2022-12-01T04:15:54.165Z,58.15
2022-12-01T04:18:21.855Z,58.26
2022-12-01T04:20:50.068Z,58.06
2022-12-01T04:23:35.688Z,58.74
2022-12-01T04:26:04.674Z,57.97
2022-12-01T04:28:31.709Z,58.56
2022-12-01T04:30:58.816Z,58.09
2022-12-01T04:33:25.878Z,57.84
2022-12-01T04:35:59.990Z,57.47
2022-12-01T04:38:30.891Z,57.75
2022-12-01T04:40:58.433Z,58.80
2022-12-01T04:43:25.463Z,58.00
2022-12-01T04:45:52.496Z,58.02
2022-12-01T04:48:19.555Z,58.32
2022-12-01T04:50:49.268Z,57.73
2022-12-01T04:53:16.288Z,58.00
2022-12-01T04:55:43.355Z,57.64
2022-12-01T04:58:10.488Z,56.96
2022-12-01T05:00:38.067Z,57.80
2022-12-01T05:03:05.184Z,57.33
2022-12-01T05:05:32.264Z,57.23
2022-12-01T05:07:59.712Z,56.49
2022-12-01T05:10:26.945Z,57.49
2022-12-01T05:12:55.307Z,58.06
2022-12-01T05:15:22.422Z,58.29
2022-12-01T05:17:49.558Z,59.28
2022-12-01T05:20:41.245Z,59.57
2022-12-01T05:23:12.282Z,60.53
2022-12-01T05:25:43.525Z,60.44
2022-12-01T05:28:10.575Z,59.61
2022-12-01T05:30:37.785Z,58.48
2022-12-01T05:33:04.829Z,58.27
2022-12-01T05:35:33.721Z,58.08
2022-12-01T05:38:06.072Z,57.87
2022-12-01T05:40:34.885Z,58.19
2022-12-01T05:43:02.013Z,58.10
2022-12-01T05:45:29.624Z,58.64
2022-12-01T05:47:58.052Z,57.69
2022-12-01T05:50:26.313Z,57.97
2022-12-01T05:52:55.771Z,58.77
2022-12-01T05:55:22.956Z,58.64
2022-12-01T05:57:50.013Z,57.60
2022-12-01T06:00:17.568Z,58.59
2022-12-01T06:02:44.950Z,59.05
2022-12-01T06:05:11.956Z,58.35
2022-12-01T06:07:40.542Z,59.59
2022-12-01T06:10:09.570Z,59.29
2022-12-01T06:12:37.053Z,59.14
2022-12-01T06:15:07.327Z,58.24
2022-12-01T06:17:39.937Z,59.44
2022-12-01T06:20:09.263Z,59.38
2022-12-01T06:22:36.497Z,58.34
2022-12-01T06:25:03.861Z,58.13
2022-12-01T06:27:30.922Z,57.64
2022-12-01T06:29:57.953Z,58.67
2022-12-01T06:32:24.939Z,58.11
2022-12-01T06:34:51.984Z,58.70
2022-12-01T06:37:19.110Z,58.50
2022-12-01T06:39:46.288Z,58.27
2022-12-01T06:42:13.508Z,58.25
2022-12-01T06:44:40.521Z,58.37
2022-12-01T06:47:08.321Z,58.36
2022-12-01T06:49:36.270Z,58.76
2022-12-01T06:52:03.285Z,58.85
2022-12-01T06:54:30.687Z,59.25
2022-12-01T06:56:58.647Z,59.65
2022-12-01T06:59:26.302Z,59.59
2022-12-01T07:01:53.716Z,59.53
2022-12-01T07:04:20.892Z,60.22
2022-12-01T07:06:47.974Z,59.82
2022-12-01T07:09:15.107Z,59.08
2022-12-01T07:11:42.208Z,58.86
2022-12-01T07:14:17.845Z,58.65
2022-12-01T07:16:44.921Z,58.04
2022-12-01T07:19:11.948Z,58.35
2022-12-01T07:21:39.007Z,57.85
2022-12-01T07:24:06.417Z,57.47
2022-12-01T07:26:33.529Z,58.90
2022-12-01T07:29:00.610Z,58.71
2022-12-01T07:31:27.709Z,59.57
2022-12-01T07:33:54.793Z,58.22
2022-12-01T07:36:21.808Z,58.81
2022-12-01T07:38:48.854Z,59.63
2022-12-01T07:41:19.259Z,59.97
2022-12-01T07:43:48.419Z,58.94
2022-12-01T07:46:23.589Z,59.53
2022-12-01T07:48:52.021Z,58.95
2022-12-01T07:51:19.393Z,59.08
2022-12-01T07:53:49.411Z,58.58
2022-12-01T07:56:17.650Z,58.03
2022-12-01T07:58:44.751Z,58.52
2022-12-01T08:01:14.206Z,58.48
2022-12-01T08:03:42.487Z,59.70
2022-12-01T08:06:10.339Z,60.04
2022-12-01T08:08:39.212Z,60.17
2022-12-01T08:11:11.744Z,59.56
2022-12-01T08:13:39.317Z,59.19
2022-12-01T08:16:08.168Z,59.22
2022-12-01T08:18:36.512Z,59.32
2022-12-01T08:21:04.917Z,59.75
2022-12-01T08:23:32.115Z,59.71
2022-12-01T08:26:05.995Z,59.12
2022-12-01T08:28:36.229Z,59.21
2022-12-01T08:31:18.294Z,58.72
2022-12-01T08:33:46.453Z,58.68
2022-12-01T08:36:13.947Z,58.21
2022-12-01T08:38:46.998Z,58.46
2022-12-01T08:41:15.115Z,59.76
2022-12-01T08:44:00.326Z,58.86
2022-12-01T08:46:31.402Z,60.23
2022-12-01T08:48:58.652Z,59.82
2022-12-01T08:51:26.403Z,59.37
2022-12-01T08:53:55.481Z,58.48
2022-12-01T08:56:28.658Z,58.56
2022-12-01T08:58:56.079Z,58.75
2022-12-01T09:01:23.381Z,58.89
2022-12-01T09:04:05.501Z,58.94
2022-12-01T09:06:37.668Z,58.99
2022-12-01T09:09:04.967Z,57.71
2022-12-01T09:11:32.027Z,59.75
2022-12-01T09:13:59.320Z,60.24
2022-12-01T09:16:26.633Z,61.11
2022-12-01T09:18:54.781Z,62.50
2022-12-01T09:21:30.778Z,62.98
2022-12-01T09:23:58.351Z,61.68
2022-12-01T09:26:25.994Z,61.88
2022-12-01T09:28:55.079Z,62.40
2022-12-01T09:31:25.966Z,61.57
2022-12-01T09:33:58.552Z,60.60
2022-12-01T09:36:26.559Z,60.83
2022-12-01T09:38:53.862Z,59.93
2022-12-01T09:41:33.110Z,60.15
2022-12-01T09:44:25.376Z,59.32
2022-12-01T09:46:55.261Z,59.09
2022-12-01T09:49:26.597Z,59.73
2022-12-01T09:51:55.225Z,59.82
2022-12-01T09:54:22.267Z,59.42
2022-12-01T09:56:55.526Z,59.70
2022-12-01T09:59:27.020Z,59.98
2022-12-01T10:02:00.327Z,60.22
2022-12-01T10:04:41.891Z,61.02
2022-12-01T10:07:34.090Z,61.54
2022-12-01T10:10:11.934Z,61.19
2022-12-01T10:12:42.647Z,61.15
2022-12-01T10:15:15.511Z,61.17
2022-12-01T10:18:15.489Z,60.41
2022-12-01T10:21:04.710Z,60.63
2022-12-01T10:23:51.667Z,60.57
2022-12-01T10:26:31.645Z,60.99
2022-12-01T10:29:47.936Z,61.11
2022-12-01T10:32:32.590Z,60.96
2022-12-01T10:34:59.688Z,61.53
2022-12-01T10:37:30.506Z,61.23
2022-12-01T10:39:58.644Z,61.62
2022-12-01T10:42:39.409Z,60.92
2022-12-01T10:45:13.946Z,60.68
2022-12-01T10:48:26.902Z,60.00
2022-12-01T10:50:56.873Z,60.18
2022-12-01T10:53:23.809Z,59.38
2022-12-01T10:56:18.421Z,59.72
2022-12-01T10:58:48.802Z,60.28
2022-12-01T11:01:27.868Z,59.41
2022-12-01T11:03:58.737Z,59.42
2022-12-01T11:06:29.074Z,59.26
2022-12-01T11:09:03.541Z,59.72
2022-12-01T11:11:36.169Z,59.34
2022-12-01T11:14:07.355Z,59.55
2022-12-01T11:16:38.446Z,59.48
2022-12-01T11:19:14.697Z,59.53
2022-12-01T11:21:50.900Z,59.19
2022-12-01T11:24:43.681Z,59.52
2022-12-01T11:27:23.157Z,59.21
2022-12-01T11:29:53.006Z,58.97
2022-12-01T11:32:27.000Z,59.25
2022-12-01T11:34:58.548Z,59.24
2022-12-01T11:37:36.160Z,59.09
2022-12-01T11:40:09.915Z,59.02
2022-12-01T11:42:37.813Z,58.90
2022-12-01T11:45:22.622Z,59.49
2022-12-01T11:48:12.400Z,59.82
2022-12-01T11:50:41.798Z,60.50
2022-12-01T11:53:36.726Z,60.07
2022-12-01T11:56:18.052Z,60.53
2022-12-01T11:58:48.313Z,60.34
2022-12-01T12:01:49.488Z,60.17
2022-12-01T12:04:25.441Z,60.07
2022-12-01T12:07:04.547Z,60.59
2022-12-01T12:09:51.919Z,60.76
2022-12-01T12:12:40.783Z,61.44
2022-12-01T12:15:14.803Z,61.07
2022-12-01T12:17:59.687Z,61.39
2022-12-01T12:20:54.630Z,61.73
2022-12-01T12:23:27.743Z,60.47
2022-12-01T12:26:26.277Z,61.16
2022-12-01T12:29:30.576Z,60.71
2022-12-01T12:32:29.045Z,61.75
2022-12-01T12:35:16.442Z,61.76
2022-12-01T12:38:15.944Z,62.57
2022-12-01T12:40:55.059Z,62.22
2022-12-01T12:43:32.082Z,62.22
2022-12-01T12:46:15.615Z,61.88
2022-12-01T12:49:12.055Z,61.26
2022-12-01T12:51:38.232Z,63.84
2022-12-01T12:54:28.049Z,64.10
2022-12-01T12:57:02.222Z,64.88
2022-12-01T13:00:00.202Z,64.96
2022-12-01T13:03:06.197Z,64.19
2022-12-01T13:05:52.972Z,64.51
2022-12-01T13:08:34.766Z,65.39
2022-12-01T13:11:18.513Z,65.72
2022-12-01T13:13:45.453Z,66.77
2022-12-01T13:16:18.525Z,66.44
2022-12-01T13:18:51.570Z,66.34
2022-12-01T13:21:21.096Z,67.36
2022-12-01T13:23:50.102Z,67.43
2022-12-01T13:26:20.565Z,66.43
2022-12-01T13:28:53.845Z,66.73
2022-12-01T13:31:22.057Z,65.62
2022-12-01T13:34:02.127Z,64.94
2022-12-01T13:36:46.351Z,65.05
2022-12-01T13:39:28.890Z,65.42
2022-12-01T13:42:18.520Z,65.50
2022-12-01T13:44:55.767Z,65.93
2022-12-01T13:47:47.697Z,66.40
2022-12-01T13:50:51.621Z,67.17
2022-12-01T13:53:33.926Z,66.53
2022-12-01T13:56:03.727Z,68.23
2022-12-01T13:58:33.835Z,68.96
2022-12-01T14:01:19.636Z,68.58
2022-12-01T14:04:22.121Z,68.48
2022-12-01T14:07:10.262Z,68.80
2022-12-01T14:09:41.576Z,68.31
2022-12-01T14:12:11.552Z,67.73
2022-12-01T14:14:49.603Z,67.60
2022-12-01T14:17:38.313Z,67.28
2022-12-01T14:20:14.828Z,67.05
2022-12-01T14:22:46.922Z,65.44
2022-12-01T14:25:20.557Z,65.04
2022-12-01T14:27:51.496Z,67.12
2022-12-01T14:30:40.708Z,68.12
2022-12-01T14:33:45.297Z,68.97
2022-12-01T14:36:12.306Z,67.48
2022-12-01T14:38:40.694Z,65.81
2022-12-01T14:41:10.525Z,65.31
2022-12-01T14:43:59.527Z,64.47
2022-12-01T14:46:29.084Z,66.87
2022-12-01T14:48:58.814Z,68.04
2022-12-01T14:51:33.060Z,68.33
2022-12-01T14:54:04.309Z,66.82
2022-12-01T14:56:33.125Z,65.35
2022-12-01T14:59:13.769Z,64.94
2022-12-01T15:01:41.333Z,65.96
2022-12-01T15:04:08.508Z,67.24
2022-12-01T15:06:36.840Z,68.33
2022-12-01T15:09:36.511Z,67.69
2022-12-01T15:12:07.470Z,65.95
2022-12-01T15:14:46.194Z,65.56
2022-12-01T15:17:37.944Z,63.94
2022-12-01T15:20:25.467Z,65.99
2022-12-01T15:22:53.457Z,66.16
2022-12-01T15:25:21.000Z,67.82
2022-12-01T15:28:02.309Z,67.52
2022-12-01T15:30:30.196Z,68.76
2022-12-01T15:32:58.487Z,69.87
2022-12-01T15:35:26.596Z,69.60
2022-12-01T15:37:54.765Z,68.75
2022-12-01T15:43:26.874Z,67.91
2022-12-01T15:45:59.831Z,66.96
2022-12-01T15:48:32.732Z,66.98
2022-12-01T15:51:13.817Z,66.49
2022-12-01T15:53:45.480Z,67.30
2022-12-01T15:56:12.737Z,67.42
2022-12-01T15:58:46.192Z,67.21
2022-12-01T16:01:18.065Z,65.86
2022-12-01T16:04:22.044Z,67.01
2022-12-01T16:07:00.834Z,67.27
2022-12-01T16:09:41.066Z,68.64
2022-12-01T16:12:16.979Z,67.41
2022-12-01T16:15:06.907Z,65.20
2022-12-01T16:17:46.749Z,65.72
2022-12-01T16:20:39.369Z,67.73
2022-12-01T16:23:11.987Z,66.14
2022-12-01T16:25:39.084Z,64.80
2022-12-01T16:28:17.728Z,65.82
2022-12-01T16:30:44.942Z,65.27
2022-12-01T16:33:19.817Z,65.99
2022-12-01T16:35:46.920Z,65.19
2022-12-01T16:38:20.666Z,65.53
2022-12-01T16:40:49.900Z,65.08
2022-12-01T16:43:19.559Z,65.71
2022-12-01T16:45:53.398Z,64.68
2022-12-01T16:48:20.694Z,64.54
2022-12-01T16:50:49.395Z,65.40
2022-12-01T16:53:16.798Z,64.58
2022-12-01T16:55:46.599Z,66.36
2022-12-01T16:58:14.468Z,65.94
2022-12-01T17:00:42.087Z,64.55
2022-12-01T17:03:12.904Z,66.56
2022-12-01T17:05:59.575Z,67.42
2022-12-01T17:08:26.680Z,67.85
2022-12-01T17:10:54.437Z,67.65
2022-12-01T17:13:26.019Z,66.72
2022-12-01T17:15:55.459Z,65.50
2022-12-01T17:18:23.754Z,65.47
2022-12-01T17:21:02.023Z,65.69
2022-12-01T17:23:29.865Z,64.12
2022-12-01T17:25:57.008Z,65.25
2022-12-01T17:28:24.083Z,65.16
2022-12-01T17:30:51.352Z,67.25
2022-12-01T17:33:18.647Z,66.88
2022-12-01T17:35:45.908Z,67.57
2022-12-01T17:38:13.004Z,64.80
2022-12-01T17:40:40.055Z,64.72
2022-12-01T17:43:08.629Z,64.52
2022-12-01T17:45:42.056Z,65.14
2022-12-01T17:48:09.334Z,65.05
2022-12-01T17:50:38.296Z,64.84
2022-12-01T17:53:05.375Z,64.60
2022-12-01T17:55:33.745Z,64.37
2022-12-01T17:58:00.933Z,64.10
2022-12-01T18:00:28.037Z,63.35
2022-12-01T18:02:55.237Z,63.22
2022-12-01T18:05:22.449Z,63.94
2022-12-01T18:07:49.785Z,63.58
2022-12-01T18:10:18.227Z,63.73
2022-12-01T18:12:45.376Z,63.26
2022-12-01T18:15:13.516Z,62.88
2022-12-01T18:17:40.628Z,64.10
2022-12-01T18:20:08.679Z,66.92
2022-12-01T18:22:35.767Z,67.59
2022-12-01T18:25:04.282Z,68.89
2022-12-01T18:27:31.389Z,67.65
2022-12-01T18:29:58.489Z,66.54
2022-12-01T18:32:25.581Z,67.04
2022-12-01T18:34:53.080Z,65.78
2022-12-01T18:37:20.431Z,65.48
2022-12-01T18:39:47.598Z,64.85
2022-12-01T18:42:14.704Z,63.95
2022-12-01T18:44:42.495Z,63.04
2022-12-01T18:47:09.802Z,63.30
2022-12-01T18:49:37.032Z,62.56
2022-12-01T18:52:04.988Z,62.97
2022-12-01T18:54:32.118Z,62.14
2022-12-01T18:56:59.534Z,62.51
2022-12-01T18:59:27.159Z,61.69
2022-12-01T19:01:55.024Z,62.17
2022-12-01T19:04:22.241Z,61.46
2022-12-01T19:06:49.410Z,61.76
2022-12-01T19:09:17.589Z,61.81
2022-12-01T19:11:44.984Z,61.74
2022-12-01T19:14:17.564Z,61.43
2022-12-01T19:16:46.049Z,61.51
2022-12-01T19:19:13.335Z,60.91
2022-12-01T19:21:40.868Z,61.21
2022-12-01T19:24:08.151Z,61.39
2022-12-01T19:26:35.399Z,61.00
2022-12-01T19:29:03.898Z,60.82
2022-12-01T19:31:31.166Z,59.90
2022-12-01T19:33:58.351Z,60.48
2022-12-01T19:36:28.910Z,61.06
2022-12-01T19:38:57.874Z,61.55
2022-12-01T19:41:25.945Z,62.85
2022-12-01T19:43:54.372Z,67.22
2022-12-01T19:46:24.325Z,67.31
2022-12-01T19:49:03.916Z,68.42
2022-12-01T19:51:37.055Z,67.61
2022-12-01T19:54:06.553Z,67.60
2022-12-01T19:56:33.875Z,66.70
2022-12-01T19:59:02.352Z,64.86
2022-12-01T20:01:30.881Z,66.30
2022-12-01T20:03:58.058Z,67.91
2022-12-01T20:06:28.128Z,68.22
2022-12-01T20:08:59.053Z,69.05
2022-12-01T20:11:26.621Z,70.64
2022-12-01T20:13:54.052Z,69.72
2022-12-01T20:16:24.723Z,69.85
2022-12-01T20:18:53.204Z,68.49
2022-12-01T20:21:26.664Z,67.88
2022-12-01T20:23:58.268Z,66.68
2022-12-01T20:26:30.604Z,65.51
2022-12-01T20:29:01.530Z,67.79
2022-12-01T20:31:30.220Z,70.18
2022-12-01T20:33:58.959Z,70.83
2022-12-01T20:36:26.683Z,71.34
2022-12-01T20:38:54.739Z,72.54
2022-12-01T20:41:22.148Z,71.00
2022-12-01T20:43:49.235Z,70.78
2022-12-01T20:46:16.620Z,71.99
2022-12-01T20:48:43.950Z,70.93
2022-12-01T20:51:14.224Z,69.09
2022-12-01T20:53:54.437Z,68.79
2022-12-01T20:56:29.458Z,69.06
2022-12-01T20:58:59.292Z,68.35
2022-12-01T21:01:26.945Z,68.17
2022-12-01T21:03:54.158Z,66.96
2022-12-01T21:06:21.842Z,66.04
2022-12-01T21:08:50.632Z,66.85
2022-12-01T21:11:48.320Z,68.20
2022-12-01T21:14:21.194Z,66.94
2022-12-01T21:16:49.440Z,66.48
2022-12-01T21:19:51.276Z,64.89
2022-12-01T21:22:19.373Z,65.39
2022-12-01T21:24:51.726Z,65.07
2022-12-01T21:27:19.129Z,65.31
2022-12-01T21:29:48.494Z,64.69
2022-12-01T21:32:44.048Z,66.01
2022-12-01T21:35:20.764Z,64.55
2022-12-01T21:37:49.145Z,66.12
2022-12-01T21:40:20.676Z,67.66
2022-12-01T21:42:48.371Z,68.04
2022-12-01T21:45:28.806Z,67.48
2022-12-01T21:48:00.498Z,69.64
2022-12-01T21:50:27.702Z,70.41
2022-12-01T21:52:54.772Z,70.50
2022-12-01T21:55:24.723Z,70.06
2022-12-01T21:57:53.454Z,69.37
2022-12-01T22:00:35.420Z,69.20
2022-12-01T22:03:08.303Z,70.32
2022-12-01T22:05:39.283Z,70.59
2022-12-01T22:08:11.970Z,71.28
2022-12-01T22:10:56.444Z,72.57
2022-12-01T22:13:35.364Z,71.06
2022-12-01T22:16:02.542Z,69.58
2022-12-01T22:18:37.031Z,69.40
2022-12-01T22:21:22.243Z,69.49
2022-12-01T22:23:57.239Z,69.37
2022-12-01T22:26:25.631Z,68.38
2022-12-01T22:28:56.323Z,66.46
2022-12-01T22:31:23.578Z,67.33
2022-12-01T22:34:02.820Z,66.63
2022-12-01T22:36:33.452Z,65.27
2022-12-01T22:39:01.471Z,65.88
2022-12-01T22:41:28.931Z,66.78
2022-12-01T22:43:56.719Z,67.93
2022-12-01T22:46:31.645Z,69.42
2022-12-01T22:49:02.790Z,68.34
2022-12-01T22:52:02.129Z,68.34
2022-12-01T22:54:34.258Z,68.14
2022-12-01T22:57:26.290Z,66.37
2022-12-01T22:59:54.472Z,67.29
2022-12-01T23:02:23.476Z,69.52
2022-12-01T23:04:58.844Z,71.79
2022-12-01T23:07:37.537Z,71.63
2022-12-01T23:10:13.258Z,72.28
2022-12-01T23:12:41.024Z,72.90
2022-12-01T23:15:22.897Z,73.13
2022-12-01T23:17:50.757Z,73.03
2022-12-01T23:20:17.811Z,70.78
2022-12-01T23:22:44.946Z,70.50
2022-12-01T23:25:18.061Z,72.47
2022-12-01T23:27:47.482Z,73.12
2022-12-01T23:30:16.489Z,73.72
2022-12-01T23:32:44.794Z,73.13
2022-12-01T23:35:17.131Z,72.46
2022-12-01T23:37:47.871Z,70.46
2022-12-01T23:40:31.842Z,69.66
2022-12-01T23:43:21.877Z,68.82
2022-12-01T23:45:52.004Z,67.94
2022-12-01T23:48:25.563Z,68.34
2022-12-01T23:50:54.535Z,66.40
2022-12-01T23:53:31.807Z,67.37
2022-12-01T23:56:05.752Z,66.04
2022-12-01T23:58:34.475Z,66.52
